Time;durP1;ratioP1;P1;durP2;ratioP2;P2;SDS_P1;SDS_P2;PMS_P1;PMS_P2;Temp;Humidity;BMP_temperature;BMP_pressure;BME280_temperature;BME280_humidity;BME280_pressure;Samples;Min_cycle;Max_cycle;Signal;HPM_P1;HPM_P2
2022/03/02 00:01:14;;;;;;;12.07;7.20;;;-2.60;99.90;;;;;;5074568;28;20228;-74
2022/03/02 00:03:43;;;;;;;11.83;6.13;;;-2.60;99.90;;;;;;5074775;28;20391;-74
2022/03/02 00:06:09;;;;;;;13.60;6.43;;;-2.60;99.90;;;;;;5032979;28;1185556;-74
2022/03/02 00:08:35;;;;;;;12.47;7.00;;;-2.70;99.90;;;;;;5075528;28;20175;-74
2022/03/02 00:11:02;;;;;;;10.60;6.50;;;-2.60;99.90;;;;;;5075394;28;20193;-75
2022/03/02 00:13:28;;;;;;;11.77;5.97;;;-2.60;99.90;;;;;;5075432;28;20422;-74
2022/03/02 00:15:53;;;;;;;15.37;7.23;;;-2.70;99.90;;;;;;5074765;28;20459;-75
2022/03/02 00:18:19;;;;;;;13.17;6.43;;;-2.60;99.90;;;;;;5075149;28;20204;-74
2022/03/02 00:20:45;;;;;;;13.40;5.70;;;-2.60;99.90;;;;;;5075189;28;20550;-74
2022/03/02 00:23:10;;;;;;;10.57;6.03;;;-2.60;99.90;;;;;;5074954;28;20177;-74
2022/03/02 00:25:36;;;;;;;13.00;6.40;;;-2.60;99.90;;;;;;5075307;28;20540;-74
2022/03/02 00:28:02;;;;;;;16.53;7.97;;;-2.60;99.90;;;;;;5075284;28;20182;-75
2022/03/02 00:30:28;;;;;;;11.63;6.07;;;-2.50;99.90;;;;;;5075065;28;20197;-74
2022/03/02 00:32:59;;;;;;;11.67;6.33;;;-2.50;99.90;;;;;;5073570;28;20538;-75
2022/03/02 00:35:25;;;;;;;9.27;5.33;;;-2.50;99.90;;;;;;5073751;28;20539;-75
2022/03/02 00:37:51;;;;;;;8.43;5.47;;;-2.50;99.90;;;;;;5074687;28;20828;-75
2022/03/02 00:40:18;;;;;;;9.17;6.57;;;-2.50;99.90;;;;;;5074550;28;20502;-75
2022/03/02 00:42:46;;;;;;;11.77;6.67;;;-2.50;99.90;;;;;;5075225;28;20489;-75
2022/03/02 00:45:12;;;;;;;11.63;5.80;;;-2.50;99.90;;;;;;5074713;28;20414;-74
2022/03/02 00:47:38;;;;;;;11.57;6.47;;;-2.50;99.90;;;;;;5074660;28;20403;-74
2022/03/02 00:50:06;;;;;;;8.50;5.93;;;-2.60;99.90;;;;;;5074372;28;20177;-75
2022/03/02 00:52:31;;;;;;;20.13;6.20;;;-2.60;99.90;;;;;;5074291;28;20407;-74
2022/03/02 00:54:57;;;;;;;10.27;6.17;;;-2.60;99.90;;;;;;5074675;28;20796;-75
2022/03/02 00:57:23;;;;;;;11.33;5.90;;;-2.60;99.90;;;;;;5074876;28;20173;-74
2022/03/02 00:59:49;;;;;;;8.13;4.93;;;-2.60;99.90;;;;;;5074183;28;20219;-75
2022/03/02 01:02:14;;;;;;;12.57;6.10;;;-2.60;99.90;;;;;;5090032;28;20239;-74
2022/03/02 01:04:40;;;;;;;10.57;5.90;;;-2.60;99.90;;;;;;5074138;28;20173;-75
2022/03/02 01:07:06;;;;;;;10.37;5.00;;;-2.60;99.90;;;;;;5074198;28;20643;-74
2022/03/02 01:09:32;;;;;;;10.60;6.10;;;-2.60;99.90;;;;;;5074514;28;20317;-75
2022/03/02 01:11:58;;;;;;;8.43;5.47;;;-2.60;99.90;;;;;;5074533;28;20192;-75
2022/03/02 01:14:24;;;;;;;11.37;6.17;;;-2.60;99.90;;;;;;5074264;28;20169;-74
2022/03/02 01:16:50;;;;;;;10.30;5.80;;;-2.60;99.90;;;;;;5074085;28;20172;-74
2022/03/02 01:19:16;;;;;;;13.63;5.63;;;-2.60;99.90;;;;;;5075296;28;20395;-74
2022/03/02 01:21:41;;;;;;;10.30;5.50;;;-2.60;99.90;;;;;;5075141;28;20193;-74
2022/03/02 01:24:08;;;;;;;9.57;5.57;;;-2.60;99.90;;;;;;5080155;28;20169;-75
2022/03/02 01:26:36;;;;;;;9.63;5.40;;;-2.60;99.90;;;;;;5074147;28;20657;-75
2022/03/02 01:29:03;;;;;;;12.00;5.63;;;-2.60;99.90;;;;;;5074229;28;20467;-74
2022/03/02 01:31:28;;;;;;;7.80;4.60;;;-2.70;99.90;;;;;;5073697;28;20433;-74
2022/03/02 01:33:54;;;;;;;7.53;4.47;;;-2.70;99.90;;;;;;5073854;28;20498;-74
2022/03/02 01:36:21;;;;;;;10.30;4.97;;;-2.70;99.90;;;;;;5074088;28;20231;-74
2022/03/02 01:38:47;;;;;;;8.27;4.37;;;-2.60;99.90;;;;;;5073789;28;20225;-74
2022/03/02 01:41:15;;;;;;;13.50;4.70;;;-2.60;99.90;;;;;;5074272;28;20428;-74
2022/03/02 01:43:41;;;;;;;7.00;4.30;;;-2.70;99.90;;;;;;5072494;28;20183;-75
2022/03/02 01:46:07;;;;;;;7.73;4.73;;;-2.70;99.90;;;;;;5073358;28;20414;-74
2022/03/02 01:48:32;;;;;;;9.77;4.20;;;-2.70;99.90;;;;;;5073551;28;20173;-75
2022/03/02 01:50:58;;;;;;;7.97;3.03;;;-2.70;99.90;;;;;;5073785;28;20199;-74
2022/03/02 01:53:24;;;;;;;7.17;3.97;;;-2.70;99.90;;;;;;5073680;28;20175;-75
2022/03/02 01:55:50;;;;;;;9.90;4.37;;;-2.60;99.90;;;;;;5073231;28;20291;-74
2022/03/02 01:58:16;;;;;;;6.10;3.63;;;-2.70;99.90;;;;;;5072230;28;20499;-74
2022/03/02 02:00:42;;;;;;;10.57;5.43;;;-2.70;99.90;;;;;;5073255;28;20197;-74
2022/03/02 02:03:08;;;;;;;10.20;4.63;;;;;;;;;;5073338;28;20169;-74
2022/03/02 02:05:34;;;;;;;7.33;4.23;;;-2.80;99.90;;;;;;5071778;28;20276;-74
2022/03/02 02:08:00;;;;;;;9.37;5.50;;;-2.80;99.90;;;;;;5073387;28;20408;-74
2022/03/02 02:10:25;;;;;;;8.20;4.53;;;-2.80;99.90;;;;;;5073245;28;20950;-75
2022/03/02 02:12:51;;;;;;;6.23;4.37;;;-3.00;99.90;;;;;;5073369;28;20585;-75
2022/03/02 02:15:17;;;;;;;9.60;4.73;;;-3.00;99.90;;;;;;5073073;28;20581;-74
2022/03/02 02:17:43;;;;;;;8.93;4.80;;;-3.10;99.90;;;;;;5073156;28;20252;-74
2022/03/02 02:20:10;;;;;;;9.23;4.80;;;-3.00;99.90;;;;;;5071871;28;20215;-75
2022/03/02 02:22:41;;;;;;;6.67;3.80;;;-3.00;99.90;;;;;;5072043;28;20596;-75
2022/03/02 02:25:07;;;;;;;7.07;4.00;;;-2.90;99.90;;;;;;5073279;28;20501;-74
2022/03/02 02:27:33;;;;;;;8.87;3.40;;;;;;;;;;5073316;28;20415;-74
2022/03/02 02:30:04;;;;;;;5.80;3.70;;;-3.10;99.90;;;;;;5073540;28;20400;-74
2022/03/02 02:32:30;;;;;;;6.00;3.60;;;-3.00;99.90;;;;;;5073152;28;20527;-74
2022/03/02 02:34:59;;;;;;;7.50;4.07;;;-3.10;99.90;;;;;;5073010;28;20454;-74
2022/03/02 02:37:25;;;;;;;9.20;4.77;;;-3.00;99.90;;;;;;5073094;28;20408;-74
2022/03/02 02:40:06;;;;;;;8.27;4.50;;;-3.10;99.90;;;;;;5073156;28;20410;-74
2022/03/02 02:42:32;;;;;;;7.23;4.27;;;;;;;;;;5072897;28;20486;-74
2022/03/02 02:44:57;;;;;;;5.77;3.83;;;-3.10;99.90;;;;;;5071709;28;20502;-74
2022/03/02 02:47:23;;;;;;;7.87;3.53;;;-3.30;99.90;;;;;;5073448;28;20947;-74
2022/03/02 02:49:49;;;;;;;4.67;3.33;;;;;;;;;;5072403;28;20181;-74
2022/03/02 02:52:15;;;;;;;8.07;3.83;;;-3.30;99.90;;;;;;5072908;28;20197;-74
2022/03/02 02:54:42;;;;;;;9.77;4.43;;;-3.10;99.90;;;;;;5072683;28;20473;-74
2022/03/02 02:57:08;;;;;;;8.70;4.80;;;-3.30;99.90;;;;;;5073273;28;20161;-74
2022/03/02 02:59:35;;;;;;;10.53;3.90;;;-3.30;99.90;;;;;;5074607;28;20435;-75
2022/03/02 03:02:01;;;;;;;5.67;3.73;;;-3.20;99.90;;;;;;5076986;28;20931;-74
2022/03/02 03:04:26;;;;;;;7.30;3.93;;;-3.30;99.90;;;;;;5076396;28;20413;-75
2022/03/02 03:06:52;;;;;;;6.60;3.83;;;-3.20;99.90;;;;;;5076309;28;20192;-75
2022/03/02 03:09:18;;;;;;;7.00;3.93;;;-3.40;99.90;;;;;;5076561;28;20168;-75
2022/03/02 03:11:44;;;;;;;7.27;4.27;;;-3.10;99.90;;;;;;5076740;28;20189;-74
2022/03/02 03:14:11;;;;;;;6.10;3.87;;;-3.20;99.90;;;;;;5076420;28;20614;-75
2022/03/02 03:16:37;;;;;;;10.33;4.10;;;-3.20;99.90;;;;;;5076254;28;20596;-74
2022/03/02 03:19:03;;;;;;;5.57;3.00;;;-3.00;99.90;;;;;;5076169;28;20419;-74
2022/03/02 03:21:29;;;;;;;6.90;3.67;;;-3.20;99.90;;;;;;5074772;28;20449;-75
2022/03/02 03:23:55;;;;;;;7.57;3.87;;;-3.30;99.90;;;;;;5076201;28;20396;-74
2022/03/02 03:26:21;;;;;;;6.63;4.07;;;-3.20;99.90;;;;;;5076048;28;20639;-74
2022/03/02 03:28:47;;;;;;;5.73;3.87;;;-3.00;99.90;;;;;;5076285;28;20201;-74
2022/03/02 03:31:12;;;;;;;6.50;3.47;;;-3.30;99.90;;;;;;5075201;28;20531;-74
2022/03/02 03:33:38;;;;;;;6.70;3.60;;;-3.10;99.90;;;;;;5075957;28;20177;-75
2022/03/02 03:36:04;;;;;;;5.67;3.33;;;;;;;;;;5076006;28;20213;-74
2022/03/02 03:38:30;;;;;;;7.03;3.53;;;-3.20;99.90;;;;;;5076331;28;20173;-74
2022/03/02 03:40:55;;;;;;;4.63;3.23;;;-3.30;99.90;;;;;;5074577;28;20500;-75
2022/03/02 03:43:21;;;;;;;5.20;3.17;;;;;;;;;;5075923;28;20169;-74
2022/03/02 03:45:49;;;;;;;8.17;3.40;;;-3.10;99.90;;;;;;5075734;28;20176;-74
2022/03/02 03:48:15;;;;;;;2.97;2.47;;;-3.30;99.90;;;;;;5074506;28;20430;-74
2022/03/02 03:50:40;;;;;;;4.33;2.50;;;-3.20;99.90;;;;;;5074293;28;20439;-74
2022/03/02 03:53:06;;;;;;;7.40;3.23;;;-3.30;99.90;;;;;;5075986;28;20184;-75
2022/03/02 03:55:32;;;;;;;6.47;3.73;;;-3.10;99.90;;;;;;5075273;28;20280;-74
2022/03/02 03:57:58;;;;;;;7.47;4.10;;;-3.10;99.90;;;;;;5075762;28;20214;-74
2022/03/02 04:00:23;;;;;;;6.60;3.47;;;-3.20;99.90;;;;;;5075311;28;20204;-74
2022/03/02 04:02:49;;;;;;;9.43;3.37;;;;;;;;;;5075473;28;20169;-74
2022/03/02 04:05:16;;;;;;;8.07;3.37;;;-3.20;99.90;;;;;;5075120;28;20638;-74
2022/03/02 04:07:42;;;;;;;6.57;2.93;;;-3.20;99.90;;;;;;5075341;28;20411;-74
2022/03/02 04:10:09;;;;;;;7.77;3.90;;;-3.20;99.90;;;;;;5074825;28;20415;-74
2022/03/02 04:12:35;;;;;;;6.47;4.13;;;-3.20;99.90;;;;;;5074951;28;20180;-75
2022/03/02 04:15:01;;;;;;;5.20;3.50;;;-3.10;99.90;;;;;;5075153;28;20805;-75
2022/03/02 04:17:26;;;;;;;5.90;3.57;;;-3.20;99.90;;;;;;5075443;28;20441;-74
2022/03/02 04:19:53;;;;;;;10.00;3.17;;;;;;;;;;5075691;28;20424;-74
2022/03/02 04:22:18;;;;;;;5.00;2.87;;;-3.10;99.90;;;;;;5076399;28;20215;-74
2022/03/02 04:24:45;;;;;;;6.30;3.07;;;-3.40;99.90;;;;;;5075941;28;20897;-74
2022/03/02 04:27:11;;;;;;;5.60;3.10;;;-3.30;99.90;;;;;;5081232;28;20262;-74
2022/03/02 04:29:37;;;;;;;5.80;3.47;;;-3.20;99.90;;;;;;5075396;28;20496;-74
2022/03/02 04:32:03;;;;;;;6.03;3.40;;;-3.50;99.90;;;;;;5074693;28;20266;-74
2022/03/02 04:34:29;;;;;;;5.43;3.23;;;-3.30;99.90;;;;;;5074557;28;20173;-75
2022/03/02 04:36:55;;;;;;;7.17;3.10;;;-3.40;99.90;;;;;;5074642;28;20452;-74
2022/03/02 04:39:20;;;;;;;6.00;2.83;;;-3.40;99.90;;;;;;5073341;28;20179;-74
2022/03/02 04:41:46;;;;;;;6.40;2.90;;;-3.40;99.90;;;;;;5090628;28;20654;-74
2022/03/02 04:44:12;;;;;;;7.50;4.23;;;;;;;;;;5074292;28;20682;-75
2022/03/02 04:46:38;;;;;;;6.07;3.60;;;-3.20;99.90;;;;;;5075204;28;20173;-74
2022/03/02 04:49:10;;;;;;;4.87;3.37;;;-3.40;99.90;;;;;;5074432;28;20643;-74
2022/03/02 04:51:37;;;;;;;9.97;4.10;;;-3.40;99.90;;;;;;5074400;28;20196;-74
2022/03/02 04:54:04;;;;;;;5.83;3.40;;;-3.60;99.90;;;;;;5074198;28;20411;-75
2022/03/02 04:56:29;;;;;;;4.53;3.20;;;-3.60;99.90;;;;;;5074815;28;20504;-75
2022/03/02 04:58:55;;;;;;;7.80;4.03;;;-3.60;99.90;;;;;;5074311;28;20404;-74
2022/03/02 05:01:21;;;;;;;7.40;3.87;;;;;;;;;;5074145;28;20223;-74
2022/03/02 05:03:47;;;;;;;4.57;3.37;;;-3.60;99.90;;;;;;5074214;28;20240;-74
2022/03/02 05:06:13;;;;;;;7.93;3.33;;;-3.60;99.90;;;;;;5089533;28;20482;-74
2022/03/02 05:08:39;;;;;;;9.50;3.43;;;;;;;;;;5074077;28;20718;-75
2022/03/02 05:11:04;;;;;;;6.67;3.57;;;-3.90;99.90;;;;;;5072720;28;20193;-75
2022/03/02 05:13:30;;;;;;;5.10;3.23;;;-3.80;99.90;;;;;;5073911;28;20457;-74
2022/03/02 05:15:56;;;;;;;6.53;3.40;;;;;;;;;;5073751;28;20245;-74
2022/03/02 05:18:21;;;;;;;6.80;4.10;;;-3.80;99.90;;;;;;5072713;28;20659;-74
2022/03/02 05:20:47;;;;;;;4.23;3.13;;;-3.80;99.90;;;;;;5073968;28;20192;-74
2022/03/02 05:23:13;;;;;;;5.00;2.80;;;-3.90;99.90;;;;;;5072243;28;20177;-74
2022/03/02 05:25:39;;;;;;;5.93;3.47;;;;;;;;;;5073572;28;20200;-74
2022/03/02 05:28:04;;;;;;;4.67;2.80;;;-4.10;99.90;;;;;;5074090;28;20177;-74
2022/03/02 05:30:30;;;;;;;6.07;3.80;;;-4.00;99.90;;;;;;5073742;28;20442;-74
2022/03/02 05:32:56;;;;;;;6.70;3.77;;;-3.80;99.90;;;;;;5073975;28;20169;-75
2022/03/02 05:35:22;;;;;;;7.53;3.03;;;-3.90;99.90;;;;;;5073604;28;20207;-74
2022/03/02 05:37:47;;;;;;;5.33;3.00;;;-3.90;99.90;;;;;;5073639;28;20199;-74
2022/03/02 05:40:16;;;;;;;5.27;3.13;;;-3.80;99.90;;;;;;5073432;28;20181;-74
2022/03/02 05:42:42;;;;;;;4.50;2.97;;;-3.70;99.90;;;;;;5073861;28;20188;-74
2022/03/02 05:45:09;;;;;;;4.33;2.70;;;-3.90;99.90;;;;;;5073740;28;20890;-74
2022/03/02 05:47:36;;;;;;;3.33;2.13;;;-4.00;99.90;;;;;;5073680;28;20414;-74
2022/03/02 05:50:03;;;;;;;6.50;2.83;;;-3.80;99.90;;;;;;5073412;28;20411;-74
2022/03/02 05:52:29;;;;;;;6.67;2.67;;;-3.80;99.90;;;;;;5073801;28;20418;-74
2022/03/02 05:54:54;;;;;;;4.93;2.90;;;-3.80;99.90;;;;;;5071958;28;20823;-75
2022/03/02 05:57:20;;;;;;;6.87;3.03;;;-3.80;99.90;;;;;;5073932;28;20639;-74
2022/03/02 05:59:46;;;;;;;7.10;3.37;;;-3.70;99.90;;;;;;5073573;28;20173;-74
2022/03/02 06:02:12;;;;;;;4.33;2.43;;;-3.70;99.90;;;;;;5073238;28;20651;-74
2022/03/02 06:04:37;;;;;;;3.10;2.17;;;-3.70;99.90;;;;;;5073374;28;20187;-75
2022/03/02 06:07:04;;;;;;;3.57;2.30;;;-3.80;99.90;;;;;;5072037;28;20200;-74
2022/03/02 06:09:31;;;;;;;5.07;2.60;;;;;;;;;;5073201;28;20684;-74
2022/03/02 06:11:56;;;;;;;3.63;2.30;;;-3.70;99.90;;;;;;5073501;28;20423;-74
2022/03/02 06:14:22;;;;;;;3.80;2.70;;;-3.60;99.90;;;;;;5073139;28;20901;-75
2022/03/02 06:16:48;;;;;;;3.97;2.53;;;;;;;;;;5073234;28;20205;-74
2022/03/02 06:19:14;;;;;;;4.30;2.77;;;-3.50;99.90;;;;;;5073560;28;20262;-75
2022/03/02 06:21:43;;;;;;;7.33;2.70;;;-3.60;99.90;;;;;;5071830;28;20841;-74
2022/03/02 06:24:10;;;;;;;5.67;3.30;;;-3.40;99.90;;;;;;5073072;28;20426;-74
2022/03/02 06:26:36;;;;;;;3.17;2.20;;;-3.30;99.90;;;;;;5073335;28;20411;-74
2022/03/02 06:29:02;;;;;;;3.63;2.27;;;-3.40;99.90;;;;;;5071993;28;20427;-75
2022/03/02 06:31:27;;;;;;;3.50;2.30;;;-3.30;99.90;;;;;;5073070;28;20446;-75
2022/03/02 06:33:53;;;;;;;5.47;2.20;;;;;;;;;;5072561;28;20892;-75
2022/03/02 06:36:20;;;;;;;7.43;2.40;;;-3.20;99.90;;;;;;5074982;28;20639;-74
2022/03/02 06:38:46;;;;;;;3.77;2.30;;;-3.10;99.90;;;;;;5076435;28;20627;-75
2022/03/02 06:41:35;;;;;;;5.57;2.43;;;-3.10;99.90;;;;;;5076287;28;20427;-75
2022/03/02 06:44:14;;;;;;;4.00;2.87;;;-3.10;99.90;;;;;;5076099;28;20403;-75
2022/03/02 06:46:52;;;;;;;6.57;3.07;;;-2.90;99.90;;;;;;5076285;28;20896;-74
2022/03/02 06:49:29;;;;;;;4.77;3.10;;;-2.80;99.90;;;;;;5076490;28;20427;-74
2022/03/02 06:51:59;;;;;;;5.00;3.10;;;-2.70;99.90;;;;;;5076883;28;20791;-75
2022/03/02 06:54:30;;;;;;;6.30;3.03;;;-2.80;99.90;;;;;;5076545;28;20421;-75
2022/03/02 06:56:59;;;;;;;6.50;3.47;;;-2.60;99.90;;;;;;5076941;28;20471;-74
2022/03/02 06:59:33;;;;;;;6.67;3.57;;;-2.60;99.90;;;;;;5076592;28;20755;-75
2022/03/02 07:02:02;;;;;;;6.83;3.30;;;-2.50;99.90;;;;;;5075094;28;20783;-74
2022/03/02 07:04:32;;;;;;;5.73;2.93;;;-2.50;99.90;;;;;;5077181;28;20437;-74
2022/03/02 07:06:58;;;;;;;3.87;2.83;;;;;;;;;;5076543;28;20465;-75
2022/03/02 07:09:24;;;;;;;6.77;3.23;;;-2.50;99.90;;;;;;5077004;28;20398;-75
2022/03/02 07:11:50;;;;;;;4.00;2.50;;;-2.50;99.90;;;;;;5075842;28;20595;-74
2022/03/02 07:14:16;;;;;;;5.03;3.13;;;-2.50;99.90;;;;;;5076101;28;20247;-74
2022/03/02 07:16:44;;;;;;;5.70;3.33;;;-2.40;99.90;;;;;;5075697;28;20847;-74
2022/03/02 07:19:10;;;;;;;9.67;3.40;;;-2.30;99.90;;;;;;5076648;28;20684;-74
2022/03/02 07:21:40;;;;;;;5.87;3.77;;;-2.20;99.90;;;;;;5077457;28;20419;-74
2022/03/02 07:24:11;;;;;;;6.70;3.70;;;-2.00;99.90;;;;;;5079590;28;20173;-75
2022/03/02 07:26:38;;;;;;;5.90;3.23;;;-1.90;99.90;;;;;;5076560;28;20527;-75
2022/03/02 07:29:09;;;;;;;7.33;3.33;;;-1.80;99.90;;;;;;5076150;28;20470;-75
2022/03/02 07:31:36;;;;;;;6.17;2.83;;;-1.60;99.90;;;;;;5075995;28;20924;-75
2022/03/02 07:34:02;;;;;;;7.10;3.33;;;-1.40;99.90;;;;;;5075712;28;20416;-75
2022/03/02 07:36:31;;;;;;;11.27;4.73;;;-1.30;99.90;;;;;;5075751;28;20477;-75
2022/03/02 07:38:56;;;;;;;5.53;3.13;;;-1.20;99.90;;;;;;5075840;28;20411;-75
2022/03/02 07:41:22;;;;;;;5.97;2.67;;;-1.00;99.90;;;;;;5075848;28;20793;-75
2022/03/02 07:43:50;;;;;;;5.00;2.97;;;-0.80;99.90;;;;;;5075994;28;20264;-75
2022/03/02 07:46:16;;;;;;;4.97;2.97;;;-0.70;99.90;;;;;;5075367;28;20256;-75
2022/03/02 07:48:42;;;;;;;7.13;3.80;;;-0.60;99.90;;;;;;5075769;28;20429;-75
2022/03/02 07:51:08;;;;;;;7.10;3.47;;;-0.60;99.90;;;;;;5075650;28;20795;-74
2022/03/02 07:53:41;;;;;;;6.03;3.27;;;-0.50;99.00;;;;;;5075622;28;20226;-75
2022/03/02 07:56:09;;;;;;;11.73;4.03;;;-0.60;98.50;;;;;;5075389;28;20530;-75
2022/03/02 07:58:39;;;;;;;11.30;3.80;;;-0.50;99.50;;;;;;5075587;28;20205;-75
2022/03/02 08:01:06;;;;;;;8.97;3.60;;;-0.20;98.70;;;;;;5075493;28;20912;-74
2022/03/02 08:03:37;;;;;;;12.43;4.40;;;0.00;98.70;;;;;;5091287;28;20494;-75
2022/03/02 08:06:03;;;;;;;8.70;3.87;;;-0.10;98.80;;;;;;5075123;28;20526;-75
2022/03/02 08:08:29;;;;;;;5.93;3.40;;;-0.20;98.50;;;;;;5075664;28;20619;-75
2022/03/02 08:10:56;;;;;;;5.63;3.27;;;-0.20;98.50;;;;;;5075639;28;20438;-74
2022/03/02 08:13:23;;;;;;;3.67;2.60;;;-0.20;97.90;;;;;;5075539;28;20203;-75
2022/03/02 08:15:50;;;;;;;4.97;3.07;;;-0.20;97.20;;;;;;5075209;28;20497;-74
2022/03/02 08:18:17;;;;;;;6.23;3.27;;;-0.20;96.60;;;;;;5075190;28;20403;-75
2022/03/02 08:20:51;;;;;;;5.93;2.80;;;0.10;96.20;;;;;;5074983;28;20431;-75
2022/03/02 08:23:21;;;;;;;4.77;2.87;;;0.20;95.90;;;;;;5075620;28;20195;-75
2022/03/02 08:25:56;;;;;;;4.53;2.70;;;0.60;95.20;;;;;;5074835;28;20419;-75
2022/03/02 08:28:23;;;;;;;7.93;3.40;;;0.80;94.50;;;;;;5074841;28;20171;-75
2022/03/02 08:30:50;;;;;;;6.07;3.53;;;1.10;93.50;;;;;;5075060;28;20454;-75
2022/03/02 08:33:27;;;;;;;8.20;3.20;;;1.20;93.40;;;;;;5074648;28;20184;-75
2022/03/02 08:35:54;;;;;;;7.27;3.27;;;1.40;93.00;;;;;;5074615;28;20203;-75
2022/03/02 08:38:21;;;;;;;6.90;3.70;;;1.30;93.00;;;;;;5074634;28;20238;-75
2022/03/02 08:40:47;;;;;;;9.70;4.67;;;1.40;92.90;;;;;;5075192;28;20197;-75
2022/03/02 08:43:17;;;;;;;9.83;5.10;;;1.60;93.30;;;;;;5073923;28;20230;-76
2022/03/02 08:45:51;;;;;;;13.70;5.63;;;1.80;92.00;;;;;;5074710;28;20181;-75
2022/03/02 08:48:18;;;;;;;8.97;4.27;;;2.10;91.10;;;;;;5075347;28;20171;-75
2022/03/02 08:50:45;;;;;;;6.13;3.97;;;2.10;90.20;;;;;;5074616;28;20275;-75
2022/03/02 08:53:15;;;;;;;4.57;3.57;;;2.50;90.50;;;;;;5074475;28;20176;-75
2022/03/02 08:55:43;;;;;;;5.17;3.67;;;2.90;87.60;;;;;;5074200;28;20189;-75
2022/03/02 08:58:09;;;;;;;7.33;3.30;;;3.20;83.90;;;;;;5089871;28;20181;-75
2022/03/02 09:00:36;;;;;;;6.07;3.53;;;3.60;81.50;;;;;;5074108;28;20245;-75
2022/03/02 09:03:03;;;;;;;9.07;3.97;;;4.20;78.70;;;;;;5074624;28;20182;-75
2022/03/02 09:05:29;;;;;;;9.30;3.50;;;4.30;75.00;;;;;;5074074;28;20221;-75
2022/03/02 09:07:55;;;;;;;5.07;3.10;;;4.70;68.60;;;;;;5074276;28;20212;-75
2022/03/02 09:10:21;;;;;;;11.87;3.90;;;4.70;67.90;;;;;;5074229;28;20185;-76
2022/03/02 09:12:46;;;;;;;6.40;3.33;;;4.70;67.60;;;;;;5074285;28;20174;-75
2022/03/02 09:15:12;;;;;;;5.40;3.47;;;5.20;66.70;;;;;;5073638;28;20250;-76
2022/03/02 09:17:38;;;;;;;3.03;2.70;;;5.70;64.20;;;;;;5074315;28;20170;-75
2022/03/02 09:20:07;;;;;;;3.40;2.70;;;6.00;63.80;;;;;;5073852;28;20176;-76
2022/03/02 09:22:35;;;;;;;3.20;2.53;;;6.30;63.60;;;;;;5072588;28;20181;-76
2022/03/02 09:25:02;;;;;;;5.50;3.30;;;6.70;63.70;;;;;;5073669;28;20180;-75
2022/03/02 09:27:30;;;;;;;3.93;2.73;;;7.10;61.30;;;;;;5073727;28;20231;-76
2022/03/02 09:30:01;;;;;;;4.73;2.90;;;7.50;58.70;;;;;;5074353;28;20195;-76
2022/03/02 09:32:30;;;;;;;4.03;2.33;;;8.10;58.00;;;;;;5072324;28;20262;-75
2022/03/02 09:34:57;;;;;;;4.67;2.70;;;8.20;53.90;;;;;;5073619;28;20300;-76
2022/03/02 09:37:24;;;;;;;4.37;2.97;;;8.40;52.60;;;;;;5073910;28;20181;-76
2022/03/02 09:39:51;;;;;;;3.80;2.80;;;8.40;53.40;;;;;;5073879;28;20181;-76
2022/03/02 09:42:40;;;;;;;4.07;2.30;;;8.10;50.00;;;;;;5073449;28;20299;-76
2022/03/02 09:45:11;;;;;;;4.60;2.37;;;7.90;49.20;;;;;;5073549;28;20657;-76
2022/03/02 09:47:45;;;;;;;6.13;2.63;;;8.50;48.90;;;;;;5073887;28;20645;-76
2022/03/02 09:50:13;;;;;;;6.03;2.50;;;9.20;46.10;;;;;;5073796;28;20177;-76
2022/03/02 09:52:41;;;;;;;4.97;2.30;;;9.20;46.30;;;;;;5073660;28;20170;-76
2022/03/02 09:55:12;;;;;;;5.50;2.47;;;9.50;45.70;;;;;;5073290;28;20256;-76
2022/03/02 09:57:45;;;;;;;5.43;2.83;;;10.10;45.30;;;;;;5073414;28;20157;-76
2022/03/02 10:00:13;;;;;;;3.90;2.90;;;10.60;43.30;;;;;;5073562;28;20165;-76
2022/03/02 10:02:44;;;;;;;5.40;3.50;;;10.60;43.90;;;;;;5073407;28;20165;-73
2022/03/02 10:05:22;;;;;;;6.40;3.37;;;10.60;43.10;;;;;;5073270;28;20256;-75
2022/03/02 10:08:07;;;;;;;4.47;3.03;;;10.70;42.90;;;;;;5074112;28;20183;-73
2022/03/02 10:10:36;;;;;;;3.90;2.80;;;10.70;44.80;;;;;;5077601;28;20266;-75
2022/03/02 10:13:08;;;;;;;4.43;2.53;;;10.30;42.60;;;;;;5077569;28;20180;-76
2022/03/02 10:15:34;;;;;;;3.40;2.67;;;10.20;41.60;;;;;;5077381;28;20288;-76
2022/03/02 10:18:02;;;;;;;4.63;2.80;;;10.40;42.70;;;;;;5077723;28;20177;-76
2022/03/02 10:20:30;;;;;;;4.57;2.73;;;11.00;42.90;;;;;;5077268;28;20193;-76
2022/03/02 10:23:22;;;;;;;4.90;2.70;;;11.30;42.30;;;;;;5077257;28;20259;-77
2022/03/02 10:25:57;;;;;;;3.70;2.30;;;11.70;44.20;;;;;;5077130;28;20162;-73
2022/03/02 10:28:50;;;;;;;4.60;3.40;;;12.30;41.70;;;;;;5077786;28;20177;-74
2022/03/02 10:31:15;;;;;;;6.00;3.10;;;12.40;41.90;;;;;;5077363;28;20638;-76
2022/03/02 10:33:51;;;;;;;3.50;2.67;;;12.70;40.10;;;;;;5077094;28;20229;-74
2022/03/02 10:36:17;;;;;;;4.77;3.50;;;13.00;37.40;;;;;;5077611;28;20209;-74
2022/03/02 10:38:58;;;;;;;3.97;3.33;;;12.50;39.20;;;;;;5077579;28;20174;-74
2022/03/02 10:41:26;;;;;;;10.63;3.40;;;12.80;40.80;;;;;;5077023;28;20199;-74
2022/03/02 10:44:26;;;;;;;4.20;3.10;;;13.00;39.90;;;;;;5076745;28;20172;-74
2022/03/02 10:47:01;;;;;;;6.13;3.13;;;13.40;42.30;;;;;;5068156;28;20189;-74
2022/03/02 10:49:29;;;;;;;7.37;3.67;;;13.70;38.30;;;;;;5077130;28;20197;-74
2022/03/02 10:51:56;;;;;;;5.83;3.70;;;13.60;39.30;;;;;;5076938;28;20222;-74
2022/03/02 10:54:26;;;;;;;4.53;3.10;;;13.70;40.30;;;;;;5076424;28;20177;-74
2022/03/02 10:56:55;;;;;;;4.60;3.20;;;13.60;37.50;;;;;;5077191;28;20170;-74
2022/03/02 10:59:24;;;;;;;6.63;2.97;;;13.90;38.40;;;;;;5076858;28;20256;-74
2022/03/02 11:01:52;;;;;;;5.63;3.30;;;14.40;37.10;;;;;;5076527;28;20204;-74
2022/03/02 11:04:19;;;;;;;5.73;3.20;;;14.30;36.80;;;;;;5076608;28;20185;-74
2022/03/02 11:06:45;;;;;;;3.10;2.80;;;14.40;37.30;;;;;;5092142;28;20212;-75
2022/03/02 11:09:11;;;;;;;4.10;3.37;;;14.40;35.70;;;;;;5076267;28;20173;-77
2022/03/02 11:11:37;;;;;;;8.70;3.67;;;13.90;36.30;;;;;;5076464;28;20236;-74
2022/03/02 11:14:04;;;;;;;5.90;3.80;;;12.90;37.60;;;;;;5076104;28;20219;-73
2022/03/02 11:16:30;;;;;;;4.20;3.33;;;12.60;39.10;;;;;;5076227;28;20204;-74
2022/03/02 11:18:56;;;;;;;6.10;3.50;;;12.30;37.80;;;;;;5076490;28;20173;-74
2022/03/02 11:21:30;;;;;;;3.80;3.23;;;11.70;37.90;;;;;;5075752;28;20278;-74
2022/03/02 11:23:59;;;;;;;4.47;3.73;;;11.20;38.60;;;;;;5076280;28;20181;-76
2022/03/02 11:26:34;;;;;;;3.93;3.13;;;11.40;40.80;;;;;;5091613;28;20204;-76
2022/03/02 11:29:12;;;;;;;5.40;2.97;;;11.60;40.80;;;;;;5076325;28;20169;-76
2022/03/02 11:31:41;;;;;;;5.50;3.00;;;11.50;40.00;;;;;;5076280;28;20681;-76
2022/03/02 11:34:29;;;;;;;3.63;3.13;;;11.10;39.20;;;;;;5075837;28;20681;-75
2022/03/02 11:37:00;;;;;;;3.60;3.07;;;11.00;41.50;;;;;;5076437;28;20157;-76
2022/03/02 11:39:27;;;;;;;3.80;2.87;;;11.20;40.20;;;;;;5074768;28;20238;-76
2022/03/02 11:41:57;;;;;;;6.47;3.20;;;11.30;39.90;;;;;;5076033;28;20207;-76
2022/03/02 11:44:28;;;;;;;4.17;2.97;;;11.30;39.20;;;;;;5075785;28;20177;-75
2022/03/02 11:46:55;;;;;;;3.90;3.50;;;11.40;40.90;;;;;;5074907;28;20211;-76
2022/03/02 11:49:20;;;;;;;4.90;3.70;;;11.20;42.70;;;;;;5076017;28;20173;-76
2022/03/02 11:52:04;;;;;;;4.27;3.63;;;11.10;43.90;;;;;;5075770;28;20201;-75
2022/03/02 11:54:56;;;;;;;6.93;3.53;;;11.20;42.70;;;;;;5075937;28;20201;-75
2022/03/02 11:57:25;;;;;;;4.93;3.50;;;11.20;40.90;;;;;;5076655;28;20667;-76
2022/03/02 12:00:11;;;;;;;5.13;3.50;;;11.10;39.70;;;;;;5075530;28;20175;-76
2022/03/02 12:02:45;;;;;;;4.63;3.27;;;11.20;41.20;;;;;;5074237;28;20179;-75
2022/03/02 12:05:12;;;;;;;4.40;3.67;;;11.50;42.70;;;;;;5073920;28;20689;-76
2022/03/02 12:07:43;;;;;;;4.23;3.53;;;11.90;42.50;;;;;;5074165;28;20189;-75
2022/03/02 12:10:25;;;;;;;4.40;3.63;;;11.80;41.70;;;;;;5075926;28;20568;-76
2022/03/02 12:12:52;;;;;;;8.27;3.67;;;11.70;42.40;;;;;;5075502;28;20517;-75
2022/03/02 12:15:19;;;;;;;4.10;3.70;;;11.50;41.90;;;;;;5075024;28;20194;-75
2022/03/02 12:17:46;;;;;;;4.10;3.30;;;11.40;42.00;;;;;;5075436;28;20652;-75
2022/03/02 12:20:22;;;;;;;5.20;3.60;;;11.50;42.60;;;;;;5074516;28;20491;-76
2022/03/02 12:22:56;;;;;;;6.50;3.80;;;11.40;42.80;;;;;;5075290;28;20166;-76
2022/03/02 12:25:24;;;;;;;4.23;3.50;;;11.30;43.90;;;;;;5075073;28;20191;-76
2022/03/02 12:28:01;;;;;;;5.37;4.17;;;11.40;44.20;;;;;;5075184;28;20182;-76
2022/03/02 12:30:35;;;;;;;7.60;4.43;;;11.00;42.10;;;;;;5075220;28;20189;-76
2022/03/02 12:33:01;;;;;;;13.47;5.17;;;10.70;44.10;;;;;;5074192;28;20166;-75
2022/03/02 12:35:27;;;;;;;6.03;3.67;;;10.70;43.80;;;;;;5076037;28;20178;-76
2022/03/02 12:37:57;;;;;;;5.03;4.00;;;10.60;43.80;;;;;;5074835;28;20189;-75
2022/03/02 12:40:26;;;;;;;5.60;3.90;;;10.60;44.60;;;;;;5074217;28;20197;-76
2022/03/02 12:42:52;;;;;;;6.93;3.90;;;10.50;44.90;;;;;;5074267;28;20179;-76
2022/03/02 12:45:19;;;;;;;6.70;4.00;;;10.20;44.80;;;;;;5073970;28;20205;-76
2022/03/02 12:47:46;;;;;;;5.20;3.90;;;10.20;45.00;;;;;;5074230;28;20200;-76
2022/03/02 12:50:15;;;;;;;4.67;3.47;;;10.20;45.40;;;;;;5074064;28;20191;-75
2022/03/02 12:52:42;;;;;;;7.33;3.93;;;10.20;45.20;;;;;;5072596;28;20556;-76
2022/03/02 12:55:10;;;;;;;6.27;3.70;;;10.20;46.20;;;;;;5077192;28;20229;-75
2022/03/02 12:57:37;;;;;;;5.70;4.07;;;10.20;45.40;;;;;;5094231;28;20196;-76